createdAt,value
2023-03-30T00:04:43.029Z,51.54
2023-03-30T00:09:46.544Z,51.87
2023-03-30T00:14:48.762Z,51.65
2023-03-30T00:19:50.405Z,52.21
2023-03-30T00:24:51.915Z,52.06
2023-03-30T00:29:53.550Z,52.60
2023-03-30T00:34:55.025Z,53.02
2023-03-30T00:39:56.755Z,52.53
2023-03-30T00:45:18.072Z,52.71
2023-03-30T00:50:24.388Z,53.62
2023-03-30T00:55:29.520Z,54.00
2023-03-30T01:00:33.149Z,54.08
2023-03-30T01:05:37.489Z,54.43
2023-03-30T01:10:39.329Z,53.96
2023-03-30T01:15:57.229Z,54.84
2023-03-30T01:21:17.733Z,55.38
2023-03-30T01:26:31.759Z,55.20
2023-03-30T01:32:18.746Z,54.74
2023-03-30T01:38:02.968Z,55.48
2023-03-30T01:43:47.064Z,55.75
2023-03-30T01:49:02.941Z,56.09
2023-03-30T01:54:18.733Z,55.56
2023-03-30T01:59:33.027Z,55.77
2023-03-30T02:04:39.209Z,55.75
2023-03-30T02:09:42.921Z,56.44
2023-03-30T02:14:44.629Z,56.76
2023-03-30T02:19:47.600Z,56.34
2023-03-30T02:24:53.149Z,56.11
2023-03-30T02:29:56.345Z,56.08
2023-03-30T02:35:00.812Z,57.05
2023-03-30T02:40:23.753Z,56.66
2023-03-30T02:45:51.608Z,56.91
2023-03-30T02:51:02.358Z,57.67
2023-03-30T02:56:22.150Z,57.76
2023-03-30T03:01:36.385Z,57.83
2023-03-30T03:06:38.937Z,57.26
2023-03-30T03:11:40.752Z,56.99
2023-03-30T03:16:42.377Z,58.18
2023-03-30T03:21:43.992Z,58.11
2023-03-30T03:26:46.054Z,57.03
2023-03-30T03:31:47.606Z,58.29
2023-03-30T03:36:53.514Z,57.69
2023-03-30T03:41:55.026Z,58.10
2023-03-30T03:46:56.821Z,58.86
2023-03-30T03:51:58.421Z,58.32
2023-03-30T03:56:59.949Z,58.10
2023-03-30T04:02:01.645Z,59.06
2023-03-30T04:07:03.235Z,58.47
2023-03-30T04:12:05.576Z,58.58
2023-03-30T04:17:07.068Z,58.79
2023-03-30T04:22:09.100Z,59.32
2023-03-30T04:27:14.409Z,58.62
2023-03-30T04:32:20.761Z,58.99
2023-03-30T04:37:30.158Z,58.89
2023-03-30T04:42:34.260Z,58.56
2023-03-30T04:47:36.024Z,59.33
2023-03-30T04:52:37.519Z,58.55
2023-03-30T04:57:39.101Z,58.62
2023-03-30T05:02:41.089Z,59.17
2023-03-30T05:07:42.700Z,59.00
2023-03-30T05:12:44.180Z,58.98
2023-03-30T05:17:45.777Z,58.99
2023-03-30T05:22:47.785Z,58.38
2023-03-30T05:27:49.292Z,58.71
2023-03-30T05:32:51.405Z,58.72
2023-03-30T05:37:54.293Z,58.65
2023-03-30T05:42:56.044Z,58.13
2023-03-30T05:47:57.574Z,58.32
2023-03-30T05:52:59.065Z,58.13
2023-03-30T05:58:00.634Z,58.07
2023-03-30T06:03:02.951Z,57.90
2023-03-30T06:08:10.970Z,57.75
2023-03-30T06:13:12.431Z,57.95
2023-03-30T06:18:14.701Z,58.10
2023-03-30T06:23:16.546Z,57.94
2023-03-30T06:28:19.689Z,58.04
2023-03-30T06:33:21.172Z,57.95
2023-03-30T06:38:23.594Z,58.00
2023-03-30T06:43:26.278Z,57.94
2023-03-30T06:48:28.091Z,58.07
2023-03-30T06:53:30.145Z,58.26
2023-03-30T06:58:32.478Z,58.00
2023-03-30T07:03:34.162Z,57.72
2023-03-30T07:08:35.884Z,57.52
2023-03-30T07:13:37.530Z,57.81
2023-03-30T07:18:39.093Z,57.88
2023-03-30T07:23:41.648Z,57.76
2023-03-30T07:28:44.881Z,57.71
2023-03-30T07:33:46.403Z,57.47
2023-03-30T07:38:47.949Z,57.18
2023-03-30T07:43:49.498Z,57.15
2023-03-30T07:48:51.061Z,57.17
2023-03-30T07:53:52.589Z,57.34
2023-03-30T07:58:54.260Z,56.90
2023-03-30T08:03:55.789Z,56.55
2023-03-30T08:08:57.357Z,56.43
2023-03-30T08:13:58.895Z,56.38
2023-03-30T08:19:00.423Z,55.94
2023-03-30T08:24:02.098Z,56.16
2023-03-30T08:29:03.856Z,55.79
2023-03-30T08:34:06.618Z,55.70
2023-03-30T08:39:08.843Z,55.74
2023-03-30T08:44:35.650Z,55.91
2023-03-30T08:49:44.474Z,56.26
2023-03-30T08:54:46.065Z,56.35
2023-03-30T09:00:11.616Z,56.73
2023-03-30T09:05:36.344Z,56.93
2023-03-30T09:10:43.917Z,57.65
2023-03-30T09:15:57.737Z,57.50
2023-03-30T09:21:02.166Z,57.86
2023-03-30T09:26:34.550Z,57.70
2023-03-30T09:31:44.479Z,57.21
2023-03-30T09:37:00.464Z,57.54
2023-03-30T09:42:35.850Z,56.91
2023-03-30T09:47:39.730Z,56.46
2023-03-30T09:52:41.871Z,56.25
2023-03-30T09:57:43.844Z,56.31
2023-03-30T10:02:56.396Z,56.04
2023-03-30T10:08:04.768Z,55.74
2023-03-30T10:13:18.108Z,55.36
2023-03-30T10:18:29.513Z,54.57
2023-03-30T10:23:42.870Z,53.90
2023-03-30T10:29:03.408Z,53.81
2023-03-30T10:34:18.697Z,53.70
2023-03-30T10:39:31.273Z,53.40
2023-03-30T10:44:43.575Z,53.51
2023-03-30T10:49:53.898Z,52.88
2023-03-30T10:55:07.972Z,52.57
2023-03-30T11:00:29.966Z,52.49
2023-03-30T11:05:38.999Z,52.20
2023-03-30T11:10:48.149Z,52.31
2023-03-30T11:15:58.581Z,52.45
2023-03-30T11:21:05.780Z,52.07
2023-03-30T11:26:11.719Z,51.71
2023-03-30T11:31:40.183Z,51.84
2023-03-30T11:36:51.174Z,51.35
2023-03-30T11:42:12.886Z,51.09
2023-03-30T11:47:24.401Z,51.39
2023-03-30T11:52:35.807Z,51.03
2023-03-30T11:57:48.299Z,50.35
2023-03-30T12:03:06.622Z,50.03
2023-03-30T12:08:46.104Z,50.06
2023-03-30T12:13:51.450Z,49.45
2023-03-30T12:19:06.261Z,49.64
2023-03-30T12:24:32.611Z,49.49
2023-03-30T12:34:58.159Z,49.10
2023-03-30T12:40:12.873Z,49.52
2023-03-30T12:45:29.421Z,49.44
2023-03-30T12:50:58.272Z,48.91
2023-03-30T12:56:09.426Z,49.55
2023-03-30T13:01:57.194Z,49.85
2023-03-30T13:07:08.248Z,50.52
2023-03-30T13:12:28.420Z,50.90
2023-03-30T13:17:50.908Z,51.34
2023-03-30T13:23:02.378Z,52.01
2023-03-30T13:28:42.443Z,53.36
2023-03-30T13:33:49.883Z,53.77
2023-03-30T13:39:04.165Z,54.24
2023-03-30T13:44:26.117Z,54.69
2023-03-30T13:50:00.006Z,55.01
2023-03-30T13:55:04.659Z,55.44
2023-03-30T14:00:33.429Z,55.11
2023-03-30T14:05:35.276Z,55.06
2023-03-30T14:10:36.939Z,55.73
2023-03-30T14:15:38.788Z,55.61
2023-03-30T14:20:57.464Z,55.64
2023-03-30T14:26:03.323Z,55.72
2023-03-30T14:31:18.669Z,55.84
2023-03-30T14:36:21.701Z,56.07
2023-03-30T14:41:28.141Z,55.85
2023-03-30T14:46:40.308Z,56.05
2023-03-30T14:51:46.229Z,56.27
2023-03-30T14:56:58.922Z,56.35
2023-03-30T15:02:01.417Z,56.22
2023-03-30T15:07:03.808Z,56.69
2023-03-30T15:12:05.980Z,57.35
2023-03-30T15:17:27.345Z,57.32
2023-03-30T15:22:34.946Z,58.20
2023-03-30T15:27:38.092Z,58.06
2023-03-30T15:32:41.616Z,58.85
2023-03-30T15:38:02.058Z,59.90
2023-03-30T15:43:15.582Z,60.89
2023-03-30T15:48:24.039Z,60.46
2023-03-30T15:54:01.043Z,60.63
2023-03-30T15:59:02.776Z,60.38
2023-03-30T16:04:05.895Z,60.07
2023-03-30T16:09:07.890Z,60.38
2023-03-30T16:14:13.733Z,60.42
2023-03-30T16:19:19.881Z,60.80
2023-03-30T16:24:21.703Z,60.50
2023-03-30T16:29:24.412Z,61.04
2023-03-30T16:34:26.282Z,60.84
2023-03-30T16:39:29.541Z,60.92
2023-03-30T16:44:31.041Z,61.21
2023-03-30T16:49:32.639Z,61.22
2023-03-30T16:54:34.366Z,61.78
2023-03-30T16:59:35.911Z,61.34
2023-03-30T17:04:37.564Z,61.52
2023-03-30T17:09:39.141Z,61.66
2023-03-30T17:14:42.572Z,61.73
2023-03-30T17:19:44.666Z,61.97
2023-03-30T17:24:46.446Z,62.49
2023-03-30T17:29:48.019Z,62.66
2023-03-30T17:34:49.947Z,62.17
2023-03-30T17:39:51.707Z,62.07
2023-03-30T17:44:53.595Z,61.82
2023-03-30T17:49:55.297Z,61.93
2023-03-30T17:54:57.308Z,62.37
2023-03-30T17:59:58.989Z,62.23
2023-03-30T18:05:01.211Z,62.43
2023-03-30T18:10:25.396Z,63.11
2023-03-30T18:15:28.353Z,62.93
2023-03-30T18:20:45.970Z,62.66
2023-03-30T18:25:47.810Z,63.27
2023-03-30T18:30:51.193Z,62.93
2023-03-30T18:35:54.423Z,63.15
2023-03-30T18:40:58.282Z,63.55
2023-03-30T18:46:02.008Z,64.30
2023-03-30T18:51:03.911Z,64.31
2023-03-30T18:56:07.041Z,63.79
2023-03-30T19:01:09.273Z,63.80
2023-03-30T19:06:14.030Z,63.78
2023-03-30T19:11:20.474Z,63.99
2023-03-30T19:16:22.520Z,64.25
2023-03-30T19:21:24.177Z,64.31
2023-03-30T19:26:26.217Z,64.65
2023-03-30T19:31:27.745Z,64.94
2023-03-30T19:36:29.357Z,66.88
2023-03-30T19:41:30.962Z,67.38
2023-03-30T19:46:32.631Z,68.61
2023-03-30T19:51:34.202Z,68.23
2023-03-30T19:56:37.290Z,68.67
2023-03-30T20:01:38.854Z,69.54
2023-03-30T20:06:40.653Z,69.54
2023-03-30T20:11:44.416Z,68.84
2023-03-30T20:16:46.278Z,70.27
2023-03-30T20:21:48.580Z,70.62
2023-03-30T20:26:50.767Z,70.57
2023-03-30T20:31:52.330Z,71.19
2023-03-30T20:36:54.007Z,72.54
2023-03-30T20:41:58.397Z,73.77
2023-03-30T20:47:00.266Z,72.37
2023-03-30T20:52:01.962Z,73.44
2023-03-30T20:57:04.215Z,72.48
2023-03-30T21:02:05.887Z,73.88
2023-03-30T21:07:10.272Z,74.10
2023-03-30T21:12:11.909Z,73.43
2023-03-30T21:17:13.899Z,73.80
2023-03-30T21:22:18.012Z,76.12
2023-03-30T21:27:19.474Z,74.92
2023-03-30T21:32:20.995Z,75.54
2023-03-30T21:37:22.517Z,76.22
2023-03-30T21:42:24.063Z,76.14
2023-03-30T21:47:25.643Z,76.53
2023-03-30T21:52:27.165Z,76.37
2023-03-30T21:57:30.211Z,75.72
2023-03-30T22:02:32.059Z,76.33
2023-03-30T22:07:35.402Z,79.06
2023-03-30T22:12:37.184Z,76.61
2023-03-30T22:17:45.953Z,76.91
2023-03-30T22:22:47.945Z,78.57
2023-03-30T22:27:49.614Z,78.13
2023-03-30T22:32:51.614Z,78.64
2023-03-30T22:37:53.178Z,79.15
2023-03-30T22:42:54.699Z,79.38
2023-03-30T22:47:57.302Z,77.98
2023-03-30T22:52:58.954Z,78.84
2023-03-30T22:58:01.543Z,78.84
2023-03-30T23:03:03.218Z,79.05
2023-03-30T23:08:05.081Z,80.27
2023-03-30T23:13:06.639Z,78.63
2023-03-30T23:18:08.544Z,78.54
2023-03-30T23:23:10.674Z,79.27
2023-03-30T23:28:12.209Z,79.11
2023-03-30T23:33:13.885Z,79.65
2023-03-30T23:38:15.445Z,80.57
2023-03-30T23:43:16.949Z,79.99
2023-03-30T23:48:19.082Z,80.07
2023-03-30T23:53:20.596Z,79.16
2023-03-30T23:58:22.893Z,79.06
